createdAt,value
2018-11-13T00:00:21.173Z,35.33
2018-11-13T00:02:50.943Z,37.00
2018-11-13T00:05:20.111Z,35.08
2018-11-13T00:07:49.048Z,35.05
2018-11-13T00:10:17.909Z,36.40
2018-11-13T00:12:46.773Z,35.52
2018-11-13T00:15:15.657Z,34.10
2018-11-13T00:17:44.470Z,35.40
2018-11-13T00:20:14.510Z,32.35
2018-11-13T00:22:43.898Z,33.40
2018-11-13T00:25:14.022Z,32.83
2018-11-13T00:27:43.410Z,31.07
2018-11-13T00:30:14.906Z,35.05
2018-11-13T00:32:44.091Z,33.53
2018-11-13T00:35:13.791Z,32.98
2018-11-13T00:37:42.756Z,32.55
2018-11-13T00:40:12.452Z,31.90
2018-11-13T00:42:42.308Z,32.35
2018-11-13T00:45:11.150Z,34.53
2018-11-13T00:47:40.053Z,38.05
2018-11-13T00:50:11.234Z,36.80
2018-11-13T00:52:40.454Z,37.60
2018-11-13T00:55:09.409Z,37.42
2018-11-13T00:57:38.513Z,37.08
2018-11-13T01:00:09.885Z,35.08
2018-11-13T01:02:38.731Z,34.38
2018-11-13T01:05:09.451Z,33.38
2018-11-13T01:07:38.360Z,32.78
2018-11-13T01:10:08.495Z,38.17
2018-11-13T01:12:37.375Z,34.88
2018-11-13T01:15:07.059Z,32.50
2018-11-13T01:17:35.789Z,34.33
2018-11-13T01:20:04.790Z,32.73
2018-11-13T01:22:34.088Z,34.63
2018-11-13T01:25:02.569Z,34.23
2018-11-13T01:27:31.481Z,30.48
2018-11-13T01:30:00.317Z,30.45
2018-11-13T01:32:29.957Z,29.80
2018-11-13T01:34:58.842Z,32.75
2018-11-13T01:37:27.660Z,29.77
2018-11-13T01:39:56.522Z,32.28
2018-11-13T01:42:25.442Z,34.45
2018-11-13T01:44:54.274Z,35.05
2018-11-13T01:47:23.068Z,38.35
2018-11-13T01:49:52.030Z,35.85
2018-11-13T01:52:20.848Z,34.40
2018-11-13T01:54:49.702Z,35.83
2018-11-13T01:57:18.554Z,34.48
2018-11-13T01:59:47.417Z,37.60
2018-11-13T02:02:16.238Z,41.63
2018-11-13T02:04:45.056Z,38.10
2018-11-13T02:07:14.011Z,38.10
2018-11-13T02:09:42.920Z,36.90
2018-11-13T02:12:11.856Z,36.80
2018-11-13T02:14:40.697Z,36.05
2018-11-13T02:17:09.622Z,37.75
2018-11-13T02:19:38.529Z,33.33
2018-11-13T02:22:07.380Z,36.42
2018-11-13T02:24:36.236Z,33.75
2018-11-13T02:27:05.182Z,33.88
2018-11-13T02:29:34.126Z,34.83
2018-11-13T02:32:02.992Z,33.95
2018-11-13T02:34:31.849Z,34.90
2018-11-13T02:37:00.673Z,33.38
2018-11-13T02:39:29.554Z,31.65
2018-11-13T02:41:58.439Z,36.28
2018-11-13T02:44:27.259Z,34.58
2018-11-13T02:46:56.242Z,32.55
2018-11-13T02:49:28.147Z,32.58
2018-11-13T02:51:57.271Z,33.38
2018-11-13T02:54:26.101Z,32.45
2018-11-13T02:56:54.956Z,34.15
2018-11-13T02:59:23.795Z,33.35
2018-11-13T03:01:52.644Z,33.30
2018-11-13T03:04:21.469Z,33.30
2018-11-13T03:06:50.495Z,32.48
2018-11-13T03:09:19.450Z,37.98
2018-11-13T03:11:48.431Z,36.28
2018-11-13T03:14:17.256Z,38.70
2018-11-13T03:16:46.123Z,112.70
2018-11-13T03:19:15.011Z,36.25
2018-11-13T03:21:43.997Z,33.33
2018-11-13T03:24:12.992Z,36.23
2018-11-13T03:26:42.001Z,34.15
2018-11-13T03:29:10.807Z,37.60
2018-11-13T03:31:39.743Z,35.95
2018-11-13T03:34:08.515Z,37.50
2018-11-13T03:36:37.655Z,38.05
2018-11-13T03:39:08.497Z,36.25
2018-11-13T03:41:37.838Z,37.38
2018-11-13T03:44:07.731Z,36.25
2018-11-13T03:46:36.619Z,38.10
2018-11-13T03:49:06.075Z,35.30
2018-11-13T03:51:34.941Z,36.58
2018-11-13T03:54:03.852Z,35.23
2018-11-13T03:56:32.749Z,39.88
2018-11-13T03:59:01.585Z,44.77
2018-11-13T04:01:30.484Z,47.70
2018-11-13T04:03:59.463Z,45.70
2018-11-13T04:06:28.322Z,45.78
2018-11-13T04:08:57.155Z,42.53
2018-11-13T04:11:26.063Z,41.42
2018-11-13T04:14:01.108Z,44.53
2018-11-13T04:16:30.010Z,42.23
2018-11-13T04:18:58.869Z,40.55
2018-11-13T04:21:27.702Z,38.58
2018-11-13T04:23:56.554Z,38.92
2018-11-13T04:26:25.647Z,35.03
2018-11-13T04:28:54.497Z,40.43
2018-11-13T04:31:23.336Z,40.10
2018-11-13T04:33:52.443Z,42.20
2018-11-13T04:36:21.307Z,39.88
2018-11-13T04:38:50.258Z,38.67
2018-11-13T04:41:19.193Z,39.33
2018-11-13T04:43:48.103Z,37.03
2018-11-13T04:46:17.747Z,39.45
2018-11-13T04:48:46.717Z,39.88
2018-11-13T04:51:15.554Z,40.17
2018-11-13T04:53:44.467Z,42.93
2018-11-13T04:56:13.610Z,45.28
2018-11-13T04:58:42.469Z,44.08
2018-11-13T05:01:11.295Z,41.90
2018-11-13T05:03:40.114Z,43.00
2018-11-13T05:06:09.148Z,40.15
2018-11-13T05:08:37.995Z,41.40
2018-11-13T05:11:07.079Z,45.63
2018-11-13T05:13:36.009Z,44.80
2018-11-13T05:16:05.257Z,47.50
2018-11-13T05:18:34.141Z,46.50
2018-11-13T05:21:02.996Z,46.98
2018-11-13T05:23:31.797Z,45.20
2018-11-13T05:26:00.625Z,47.78
2018-11-13T05:28:29.460Z,43.85
2018-11-13T05:31:04.504Z,43.20
2018-11-13T05:33:33.329Z,40.78
2018-11-13T05:36:02.202Z,39.65
2018-11-13T05:38:31.035Z,43.60
2018-11-13T05:40:59.865Z,39.45
2018-11-13T05:43:28.943Z,42.50
2018-11-13T05:45:57.993Z,45.67
2018-11-13T05:48:26.861Z,46.00
2018-11-13T05:50:55.794Z,45.25
2018-11-13T05:53:24.619Z,45.75
2018-11-13T05:55:53.444Z,50.40
2018-11-13T05:58:22.324Z,50.63
2018-11-13T06:00:51.149Z,47.30
2018-11-13T06:03:19.993Z,49.23
2018-11-13T06:05:48.846Z,54.53
2018-11-13T06:08:18.605Z,47.62
2018-11-13T06:10:48.182Z,52.03
2018-11-13T06:13:17.021Z,52.93
2018-11-13T06:15:45.956Z,46.58
2018-11-13T06:18:14.829Z,47.75
2018-11-13T06:20:43.651Z,49.38
2018-11-13T06:23:12.561Z,48.38
2018-11-13T06:25:41.329Z,51.42
2018-11-13T06:28:10.274Z,50.95
2018-11-13T06:30:39.151Z,51.50
2018-11-13T06:33:08.033Z,51.10
2018-11-13T06:35:36.912Z,55.45
2018-11-13T06:38:05.890Z,56.15
2018-11-13T06:40:34.773Z,56.73
2018-11-13T06:43:03.636Z,57.67
2018-11-13T06:45:32.465Z,56.65
2018-11-13T06:48:01.292Z,58.55
2018-11-13T06:50:30.164Z,65.00
2018-11-13T06:52:59.025Z,63.63
2018-11-13T06:55:35.034Z,74.70
2018-11-13T06:58:04.505Z,73.10
2018-11-13T07:00:33.409Z,75.22
2018-11-13T07:03:02.409Z,74.27
2018-11-13T07:05:31.230Z,75.08
2018-11-13T07:08:00.169Z,69.90
2018-11-13T07:10:29.774Z,67.75
2018-11-13T07:12:59.164Z,59.70
2018-11-13T07:15:29.288Z,59.73
2018-11-13T07:18:02.390Z,61.48
2018-11-13T07:20:32.569Z,57.60
2018-11-13T07:23:01.492Z,55.50
2018-11-13T07:25:30.429Z,60.65
2018-11-13T07:27:59.367Z,59.25
2018-11-13T07:30:28.675Z,57.03
2018-11-13T07:32:57.508Z,59.67
2018-11-13T07:35:26.366Z,60.00
2018-11-13T07:37:57.407Z,59.63
2018-11-13T07:40:26.453Z,57.33
2018-11-13T07:42:55.489Z,64.32
2018-11-13T07:45:24.386Z,64.82
2018-11-13T07:47:53.730Z,64.95
2018-11-13T07:50:22.544Z,63.63
2018-11-13T07:52:51.394Z,59.98
2018-11-13T07:55:20.236Z,58.17
2018-11-13T07:57:49.074Z,57.90
2018-11-13T08:00:20.000Z,62.43
2018-11-13T08:02:50.221Z,66.12
2018-11-13T08:05:19.113Z,58.87
2018-11-13T08:07:47.956Z,59.10
2018-11-13T08:10:16.944Z,61.77
2018-11-13T08:12:46.197Z,61.08
2018-11-13T08:15:16.309Z,57.15
2018-11-13T08:17:45.153Z,56.28
2018-11-13T08:20:15.168Z,53.28
2018-11-13T08:22:44.524Z,58.30
2018-11-13T08:25:13.522Z,53.65
2018-11-13T08:27:45.774Z,58.23
2018-11-13T08:30:16.017Z,53.95
2018-11-13T08:32:45.616Z,56.73
2018-11-13T08:35:14.722Z,55.43
2018-11-13T08:37:43.682Z,60.08
2018-11-13T08:40:14.125Z,56.35
2018-11-13T08:42:43.683Z,60.08
2018-11-13T08:45:13.527Z,54.70
2018-11-13T08:47:42.737Z,56.00
2018-11-13T08:50:12.156Z,58.33
2018-11-13T08:52:41.745Z,58.15
2018-11-13T08:55:11.169Z,59.10
2018-11-13T08:57:40.090Z,61.65
2018-11-13T09:00:11.018Z,56.28
2018-11-13T09:02:40.274Z,59.00
2018-11-13T09:05:09.797Z,59.47
2018-11-13T09:07:38.762Z,56.08
2018-11-13T09:10:10.360Z,55.30
2018-11-13T09:12:39.742Z,53.13
2018-11-13T09:15:10.700Z,55.60
2018-11-13T09:17:39.601Z,51.70
2018-11-13T09:20:10.664Z,50.03
2018-11-13T09:22:39.557Z,46.33
2018-11-13T09:25:10.633Z,47.33
2018-11-13T09:27:40.477Z,45.70
2018-11-13T09:30:11.973Z,46.50
2018-11-13T09:32:41.352Z,47.43
2018-11-13T09:35:11.579Z,48.37
2018-11-13T09:37:40.332Z,45.77
2018-11-13T09:40:11.863Z,47.07
2018-11-13T09:42:41.382Z,45.40
2018-11-13T09:45:10.988Z,48.07
2018-11-13T09:47:40.255Z,46.77
2018-11-13T09:50:13.572Z,44.37
2018-11-13T09:52:43.631Z,41.57
2018-11-13T09:55:13.943Z,43.60
2018-11-13T09:57:42.781Z,41.00
2018-11-13T10:00:17.075Z,43.43
2018-11-13T10:02:54.081Z,40.33
2018-11-13T10:05:23.056Z,39.33
2018-11-13T10:07:52.407Z,39.50
2018-11-13T10:10:21.293Z,36.63
2018-11-13T10:12:50.243Z,36.60
2018-11-13T10:15:23.414Z,36.73
2018-11-13T10:17:52.379Z,34.80
2018-11-13T10:20:21.193Z,35.37
2018-11-13T10:22:51.504Z,37.00
2018-11-13T10:25:20.391Z,34.37
2018-11-13T10:27:49.374Z,33.43
2018-11-13T10:30:19.386Z,31.00
2018-11-13T10:32:48.788Z,30.50
2018-11-13T10:35:19.019Z,32.63
2018-11-13T10:37:47.947Z,33.87
2018-11-13T10:40:18.177Z,37.20
2018-11-13T10:42:47.055Z,32.70
2018-11-13T10:45:18.297Z,31.30
2018-11-13T10:47:47.115Z,29.67
2018-11-13T10:50:17.734Z,31.20
2018-11-13T10:52:46.667Z,30.73
2018-11-13T10:55:15.486Z,31.63
2018-11-13T10:57:44.634Z,29.73
2018-11-13T11:00:20.546Z,31.90
2018-11-13T11:02:54.728Z,32.10
2018-11-13T11:05:25.491Z,30.47
2018-11-13T11:07:54.631Z,28.37
2018-11-13T11:10:23.468Z,29.17
2018-11-13T11:12:52.376Z,28.93
2018-11-13T11:15:21.232Z,28.40
2018-11-13T11:17:50.090Z,27.43
2018-11-13T11:20:18.957Z,28.33
2018-11-13T11:22:47.952Z,28.97
2018-11-13T11:25:16.736Z,27.53
2018-11-13T11:27:45.580Z,24.27
2018-11-13T11:30:15.384Z,26.13
2018-11-13T11:32:44.284Z,22.10
2018-11-13T11:35:13.181Z,22.90
2018-11-13T11:37:42.348Z,23.40
2018-11-13T11:40:12.183Z,24.13
2018-11-13T11:42:41.052Z,22.97
2018-11-13T11:45:12.154Z,25.23
2018-11-13T11:47:41.084Z,24.13
2018-11-13T11:50:11.080Z,24.37
2018-11-13T11:52:40.035Z,24.03
2018-11-13T11:55:09.497Z,23.03
2018-11-13T11:57:38.348Z,21.73
2018-11-13T12:00:10.336Z,24.33
2018-11-13T12:02:39.206Z,23.70
2018-11-13T12:05:08.713Z,24.33
2018-11-13T12:07:37.922Z,25.73
2018-11-13T12:10:08.801Z,23.60
2018-11-13T12:12:37.653Z,24.60
2018-11-13T12:15:08.213Z,24.77
2018-11-13T12:17:37.124Z,25.33
2018-11-13T12:20:06.860Z,24.67
2018-11-13T12:22:35.718Z,24.17
2018-11-13T12:25:04.771Z,24.37
2018-11-13T12:27:33.606Z,25.73
2018-11-13T12:30:02.449Z,25.10
2018-11-13T12:32:31.324Z,23.63
2018-11-13T12:35:00.182Z,24.90
2018-11-13T12:37:29.004Z,24.90
2018-11-13T12:39:57.920Z,23.90
2018-11-13T12:42:26.779Z,24.53
2018-11-13T12:44:55.619Z,24.13
2018-11-13T12:47:24.532Z,23.17
2018-11-13T12:49:53.393Z,22.87
2018-11-13T12:52:23.973Z,24.47
2018-11-13T12:54:51.108Z,25.30
2018-11-13T12:57:19.920Z,24.17
2018-11-13T12:59:48.867Z,24.10
2018-11-13T13:02:17.746Z,22.53
2018-11-13T13:04:46.574Z,23.73
2018-11-13T13:07:15.446Z,22.73
2018-11-13T13:09:44.270Z,22.33
2018-11-13T13:12:13.186Z,22.73
2018-11-13T13:14:42.089Z,22.80
2018-11-13T13:17:11.037Z,22.07
2018-11-13T13:19:39.878Z,24.77
2018-11-13T13:22:08.784Z,22.40
2018-11-13T13:24:37.606Z,22.73
2018-11-13T13:27:06.519Z,26.13
2018-11-13T13:29:35.448Z,24.90
2018-11-13T13:32:04.310Z,23.20
2018-11-13T13:34:33.189Z,23.73
2018-11-13T13:37:02.029Z,24.13
2018-11-13T13:39:30.877Z,23.53
2018-11-13T13:41:59.708Z,23.03
2018-11-13T13:44:28.569Z,23.40
2018-11-13T13:46:57.386Z,23.70
2018-11-13T13:49:26.249Z,21.67
2018-11-13T13:51:55.090Z,22.90
2018-11-13T13:54:24.042Z,21.10
2018-11-13T13:56:52.882Z,21.23
2018-11-13T13:59:21.842Z,20.73
2018-11-13T14:01:50.703Z,22.27
2018-11-13T14:04:19.574Z,22.20
2018-11-13T14:06:48.415Z,21.37
2018-11-13T14:09:17.306Z,20.53
2018-11-13T14:11:46.127Z,21.70
2018-11-13T14:14:14.973Z,20.40
2018-11-13T14:16:43.789Z,22.17
2018-11-13T14:19:12.718Z,22.47
2018-11-13T14:21:41.573Z,22.10
2018-11-13T14:24:10.411Z,20.27
2018-11-13T14:26:39.297Z,22.03
2018-11-13T14:29:08.319Z,20.80
2018-11-13T14:31:37.120Z,21.47
2018-11-13T14:34:06.199Z,21.67
2018-11-13T14:36:35.074Z,21.93
2018-11-13T14:39:04.719Z,22.23
2018-11-13T14:41:33.648Z,22.47
2018-11-13T14:44:02.478Z,22.53
2018-11-13T14:46:31.417Z,22.77
2018-11-13T14:49:00.222Z,23.53
2018-11-13T14:51:29.042Z,23.67
2018-11-13T14:53:57.909Z,22.57
2018-11-13T14:56:26.777Z,23.60
2018-11-13T14:58:55.673Z,23.83
2018-11-13T15:01:24.555Z,24.67
2018-11-13T15:03:53.476Z,23.70
2018-11-13T15:06:22.453Z,24.17
2018-11-13T15:08:51.335Z,25.90
2018-11-13T15:14:18.256Z,23.50
2018-11-13T15:16:47.108Z,25.97
2018-11-13T15:19:15.948Z,23.73
2018-11-13T15:21:44.852Z,24.53
2018-11-13T15:24:13.769Z,24.80
2018-11-13T15:26:42.664Z,25.00
2018-11-13T15:29:11.533Z,26.50
2018-11-13T15:31:40.452Z,26.97
2018-11-13T15:34:09.307Z,25.00
2018-11-13T15:36:38.271Z,25.37
2018-11-13T15:39:10.767Z,24.83
2018-11-13T15:41:39.616Z,26.60
2018-11-13T15:44:08.605Z,25.03
2018-11-13T15:46:37.478Z,24.53
2018-11-13T15:49:06.315Z,24.03
2018-11-13T15:51:35.341Z,25.03
2018-11-13T15:54:04.108Z,24.63
2018-11-13T15:56:32.962Z,25.33
2018-11-13T15:59:01.812Z,25.47
2018-11-13T16:01:30.720Z,26.23
2018-11-13T16:03:59.546Z,25.23
2018-11-13T16:06:28.588Z,27.97
2018-11-13T16:08:57.396Z,27.60
2018-11-13T16:11:26.347Z,26.57
2018-11-13T16:13:55.240Z,26.67
2018-11-13T16:16:24.146Z,26.13
2018-11-13T16:18:52.977Z,26.20
2018-11-13T16:21:21.896Z,27.23
2018-11-13T16:23:51.598Z,28.50
2018-11-13T16:26:20.447Z,28.10
2018-11-13T16:28:49.548Z,27.20
2018-11-13T16:31:18.465Z,27.10
2018-11-13T16:33:47.347Z,27.57
2018-11-13T16:36:16.282Z,26.03
2018-11-13T16:38:45.749Z,27.23
2018-11-13T16:41:14.708Z,27.27
2018-11-13T16:43:43.518Z,26.47
2018-11-13T16:46:12.486Z,27.27
2018-11-13T16:48:41.349Z,26.80
2018-11-13T16:51:10.293Z,27.63
2018-11-13T16:53:44.430Z,27.20
2018-11-13T16:56:13.258Z,25.87
2018-11-13T16:58:42.189Z,27.80
2018-11-13T17:01:11.272Z,31.80
2018-11-13T17:03:40.177Z,31.70
2018-11-13T17:06:09.134Z,31.60
2018-11-13T17:08:38.019Z,33.23
2018-11-13T17:11:06.897Z,36.37
2018-11-13T17:13:35.804Z,35.60
2018-11-13T17:16:04.686Z,40.97
2018-11-13T17:18:33.553Z,36.73
2018-11-13T17:21:02.426Z,37.60
2018-11-13T17:23:31.319Z,37.13
2018-11-13T17:26:00.225Z,37.40
2018-11-13T17:28:29.114Z,36.70
2018-11-13T17:30:58.038Z,37.63
2018-11-13T17:33:26.879Z,40.97
2018-11-13T17:35:55.739Z,39.57
2018-11-13T17:38:24.602Z,41.57
2018-11-13T17:40:53.455Z,39.87
2018-11-13T17:43:22.330Z,39.00
2018-11-13T17:45:51.169Z,39.30
2018-11-13T17:48:20.056Z,37.43
2018-11-13T17:50:48.890Z,37.07
2018-11-13T17:53:17.804Z,38.27
2018-11-13T17:55:46.681Z,37.03
2018-11-13T17:58:15.898Z,38.13
2018-11-13T18:00:46.309Z,36.13
2018-11-13T18:03:16.039Z,40.17
2018-11-13T18:05:45.561Z,40.53
2018-11-13T18:08:14.581Z,38.70
2018-11-13T18:10:44.805Z,38.20
2018-11-13T18:13:14.401Z,36.77
2018-11-13T18:15:43.280Z,36.47
2018-11-13T18:18:12.758Z,38.53
2018-11-13T18:20:42.301Z,39.20
2018-11-13T18:23:11.377Z,38.53
2018-11-13T18:25:40.374Z,41.05
2018-11-13T18:28:09.487Z,42.07
2018-11-13T18:30:39.074Z,41.73
2018-11-13T18:33:08.568Z,41.67
2018-11-13T18:35:38.475Z,42.30
2018-11-13T18:38:09.514Z,44.17
2018-11-13T18:40:38.441Z,43.83
2018-11-13T18:43:07.654Z,42.10
2018-11-13T18:45:38.240Z,44.23
2018-11-13T18:48:07.120Z,44.70
2018-11-13T18:50:37.569Z,43.37
2018-11-13T18:53:06.650Z,46.60
2018-11-13T18:55:35.525Z,45.63
2018-11-13T18:58:04.808Z,43.70
2018-11-13T19:00:35.074Z,47.20
2018-11-13T19:03:05.530Z,46.30
2018-11-13T19:05:34.550Z,45.83
2018-11-13T19:08:03.462Z,46.13
2018-11-13T19:10:38.008Z,43.23
2018-11-13T19:13:09.189Z,46.13
2018-11-13T19:15:39.545Z,44.73
2018-11-13T19:18:09.140Z,45.97
2018-11-13T19:20:38.059Z,45.63
2018-11-13T19:23:07.144Z,47.87
2018-11-13T19:25:36.606Z,47.40
2018-11-13T19:28:05.652Z,51.80
2018-11-13T19:30:34.544Z,50.27
2018-11-13T19:33:03.459Z,51.23
2018-11-13T19:35:32.481Z,55.58
2018-11-13T19:38:01.263Z,55.70
2018-11-13T19:40:31.807Z,56.05
2018-11-13T19:43:02.133Z,56.70
2018-11-13T19:45:30.979Z,55.60
2018-11-13T19:48:00.026Z,57.50
2018-11-13T19:50:30.191Z,51.40
2018-11-13T19:53:01.663Z,49.73
2018-11-13T19:55:31.269Z,48.80
2018-11-13T19:58:00.243Z,52.13
2018-11-13T20:00:34.471Z,53.90
2018-11-13T20:03:04.683Z,54.23
2018-11-13T20:05:33.844Z,53.13
2018-11-13T20:08:02.842Z,51.55
2018-11-13T20:10:33.256Z,52.80
2018-11-13T20:13:03.214Z,53.58
2018-11-13T20:15:33.051Z,51.48
2018-11-13T20:18:01.986Z,49.30
2018-11-13T20:20:31.950Z,47.55
2018-11-13T20:23:02.049Z,49.90
2018-11-13T20:25:32.168Z,49.53
2018-11-13T20:28:01.180Z,48.45
2018-11-13T20:30:31.748Z,53.17
2018-11-13T20:33:00.627Z,51.00
2018-11-13T20:35:29.578Z,49.88
2018-11-13T20:37:59.073Z,51.05
2018-11-13T20:40:29.348Z,51.98
2018-11-13T20:42:59.463Z,45.88
2018-11-13T20:45:28.342Z,46.60
2018-11-13T20:47:57.315Z,48.38
2018-11-13T20:50:28.498Z,44.40
2018-11-13T20:52:57.474Z,47.10
2018-11-13T20:55:26.467Z,47.58
2018-11-13T20:57:55.341Z,46.92
2018-11-13T21:00:38.553Z,49.33
2018-11-13T21:03:07.869Z,49.45
2018-11-13T21:05:36.736Z,50.88
2018-11-13T21:08:05.737Z,47.62
2018-11-13T21:10:36.322Z,50.10
2018-11-13T21:13:05.538Z,47.48
2018-11-13T21:15:34.380Z,47.15
2018-11-13T21:18:03.263Z,47.90
2018-11-13T21:20:32.104Z,47.65
2018-11-13T21:23:01.065Z,48.13
2018-11-13T21:25:29.919Z,46.75
2018-11-13T21:28:00.714Z,51.33
2018-11-13T21:30:29.668Z,45.70
2018-11-13T21:32:58.548Z,46.15
2018-11-13T21:35:27.383Z,50.00
2018-11-13T21:37:57.264Z,44.60
2018-11-13T21:40:27.199Z,45.33
2018-11-13T21:42:56.672Z,48.55
2018-11-13T21:45:26.510Z,45.60
2018-11-13T21:47:55.389Z,45.30
2018-11-13T21:50:26.679Z,45.83
2018-11-13T21:52:55.557Z,46.85
2018-11-13T21:55:25.625Z,44.88
2018-11-13T21:57:54.458Z,47.67
2018-11-13T22:00:27.428Z,44.45
2018-11-13T22:03:00.517Z,47.15
2018-11-13T22:05:30.143Z,42.90
2018-11-13T22:07:59.056Z,47.30
2018-11-13T22:10:27.980Z,44.60
2018-11-13T22:12:56.884Z,46.18
2018-11-13T22:15:26.988Z,43.63
2018-11-13T22:17:55.927Z,45.20
2018-11-13T22:20:25.442Z,43.48
2018-11-13T22:22:55.581Z,42.50
2018-11-13T22:25:25.366Z,46.55
2018-11-13T22:27:55.674Z,45.88
2018-11-13T22:30:28.913Z,44.08
2018-11-13T22:32:57.772Z,44.00
2018-11-13T22:35:26.637Z,47.67
2018-11-13T22:37:54.335Z,45.25
2018-11-13T22:40:25.595Z,45.78
2018-11-13T22:42:54.631Z,48.17
2018-11-13T22:45:25.617Z,46.13
2018-11-13T22:47:54.820Z,44.42
2018-11-13T22:50:26.040Z,47.73
2018-11-13T22:52:55.371Z,48.10
2018-11-13T22:55:24.298Z,45.40
2018-11-13T22:57:54.784Z,46.35
2018-11-13T23:00:30.158Z,43.80
2018-11-13T23:02:59.034Z,41.60
2018-11-13T23:05:27.861Z,42.33
2018-11-13T23:07:56.734Z,41.65
2018-11-13T23:10:25.578Z,42.43
2018-11-13T23:12:54.409Z,42.65
2018-11-13T23:15:23.331Z,46.53
2018-11-13T23:17:52.161Z,40.70
2018-11-13T23:20:21.708Z,44.42
2018-11-13T23:22:50.606Z,43.68
2018-11-13T23:25:20.292Z,43.92
2018-11-13T23:27:50.370Z,43.25
2018-11-13T23:30:21.617Z,46.73
2018-11-13T23:32:50.772Z,44.15
2018-11-13T23:35:19.919Z,45.38
2018-11-13T23:37:50.164Z,42.35
2018-11-13T23:40:20.299Z,41.08
2018-11-13T23:42:49.554Z,43.30
2018-11-13T23:45:19.351Z,41.35
2018-11-13T23:47:48.694Z,41.73
2018-11-13T23:50:17.627Z,41.33
2018-11-13T23:52:47.378Z,41.60
2018-11-13T23:55:16.611Z,40.60
2018-11-13T23:57:45.990Z,40.52
